Terminal Aerodrome Forecast
Issued by NWS

Home | Current Version | Previous Version | Text Only | Print | Product List | Glossary On
Versions: 1 2 3 4 5 6 7 8 9 10 11 12 13 14
575
FTPQ31 PGUM 252330
TAFKMJ
TAF
PKMJ 252330Z 2600/2624 10013KT P6SM VCSH SCT016 SCT040 BKN140
      TEMPO 2600/2602 5SM SHRA SCT014 BKN025=

USA.gov is the U.S. government's official web portal to all federal, state and local government web resources and services.